Terminal Aerodrome Forecast
Issued by NWS

Home | Current Version | Previous Version | Text Only | Print | Product List | Glossary Off
Versions: 1 2 3 4 5 6 7 8 9 10 11 12 13 14 15 16 17 18 19 20

000
FTUS43 KGRB 211734
TAFRHI
TAF
KRHI 211734Z 2118/2218 12011KT P6SM BKN150
     FM212100 14007KT P6SM BKN050
     FM220600 14003KT 6SM BR BKN020
      TEMPO 2208/2212 2SM BR
     FM221400 01005KT P6SM SCT020=

USA.gov is the U.S. government's official web portal to all federal, state and local government web resources and services.